Time;durP1;ratioP1;P1;durP2;ratioP2;P2;SDS_P1;SDS_P2;PMS_P1;PMS_P2;Temp;Humidity;BMP_temperature;BMP_pressure;BME280_temperature;BME280_humidity;BME280_pressure;Samples;Min_cycle;Max_cycle;Signal;HPM_P1;HPM_P2
2023/09/17 00:01:38;;;;;;;;;;;;;;;-144.99;100.00;52297.25;5024203;28;19990;-79
2023/09/17 00:04:06;;;;;;;;;;;;;;;-144.99;100.00;52313.56;5018712;28;19945;-77
2023/09/17 00:06:33;;;;;;;;;;;;;;;-144.99;100.00;52309.50;5027916;28;20135;-79
2023/09/17 00:08:59;;;;;;;;;;;;;;;-144.99;100.00;52276.88;5030375;28;19941;-78
2023/09/17 00:11:26;;;;;;;;;;;;;;;-144.99;100.00;52346.19;5019256;28;19947;-79
2023/09/17 00:13:52;;;;;;;;;;;;;;;-144.99;100.00;52317.66;5025240;28;19933;-78
2023/09/17 00:16:20;;;;;;;;;;;;;;;-144.99;100.00;52293.19;5023720;28;19985;-77
2023/09/17 00:18:47;;;;;;;;;;;;;;;-144.99;100.00;52280.97;5015954;28;19945;-78
2023/09/17 00:21:13;;;;;;;;;;;;;;;-144.99;100.00;52305.41;5019679;28;19950;-76
2023/09/17 00:23:40;;;;;;;;;;;;;;;-144.99;100.00;52329.88;5004572;28;20055;-76
2023/09/17 00:26:07;;;;;;;;;;;;;;;-144.99;100.00;52303.38;4993763;28;20011;-75
2023/09/17 00:28:33;;;;;;;;;;;;;;;-144.99;100.00;52327.84;5004628;28;19944;-76
2023/09/17 00:31:00;;;;;;;;;;;;;;;-144.99;100.00;52276.88;4991713;28;20036;-76
2023/09/17 00:33:27;;;;;;;;;;;;;;;-144.99;100.00;52276.88;5005410;28;19952;-76
2023/09/17 00:35:54;;;;;;;;;;;;;;;-144.99;100.00;52268.72;5004433;28;20013;-77
2023/09/17 00:38:20;;;;;;;;;;;;;;;-144.99;100.00;52295.22;4999345;28;20063;-77
2023/09/17 00:40:47;;;;;;;;;;;;;;;-144.99;100.00;52317.66;5006284;28;20009;-77
2023/09/17 00:43:14;;;;;;;;;;;;;;;-144.99;100.00;52317.66;5009146;28;20485;-76
2023/09/17 00:45:42;;;;;;;;;;;;;;;-144.99;100.00;52293.19;5008689;28;19991;-77
2023/09/17 00:48:09;;;;;;;;;;;;;;;-144.99;100.00;52309.50;5000258;28;19950;-78
2023/09/17 00:50:38;;;;;;;;;;;;;;;-144.99;100.00;52354.34;5001375;28;19939;-75
2023/09/17 00:53:05;;;;;;;;;;;;;;;-144.99;100.00;52264.66;5007437;28;20408;-75
2023/09/17 00:55:33;;;;;;;;;;;;;;;-144.99;100.00;52301.34;5009076;28;19957;-74
2023/09/17 00:58:00;;;;;;;;;;;;;;;-144.99;100.00;52305.41;5004778;28;20696;-77
2023/09/17 01:00:27;;;;;;;;;;;;;;;-144.99;100.00;52327.84;5002767;28;19956;-78
2023/09/17 01:02:54;;;;;;;;;;;;;;;-144.99;100.00;52338.03;5003349;28;19999;-78
2023/09/17 01:05:21;;;;;;;;;;;;;;;-144.99;100.00;52297.25;4994981;28;20046;-78
2023/09/17 01:07:50;;;;;;;;;;;;;;;-144.99;100.00;52297.25;5011201;28;19959;-78
2023/09/17 01:10:16;;;;;;;;;;;;;;;-144.99;100.00;52329.88;5011333;28;20034;-78
2023/09/17 01:12:43;;;;;;;;;;;;;;;-144.99;100.00;52329.88;5014810;28;19942;-78
2023/09/17 01:15:10;;;;;;;;;;;;;;;-144.99;100.00;52321.72;5009970;28;19950;-78
2023/09/17 01:17:37;;;;;;;;;;;;;;;-144.99;100.00;52280.97;5005540;28;20004;-78
2023/09/17 01:20:28;;;;;;;;;;;;;;;-144.99;100.00;52280.97;5001720;28;19949;-78
2023/09/17 01:22:59;;;;;;;;;;;;;;;-144.99;100.00;52262.63;5008645;28;19966;-73
2023/09/17 01:25:31;;;;;;;;;;;;;;;-144.99;100.00;52297.25;5001162;28;19959;-74
2023/09/17 01:28:00;;;;;;;;;;;;;;;-144.99;100.00;52301.34;5001163;28;19950;-73
2023/09/17 01:30:27;;;;;;;;;;;;;;;-144.99;100.00;52317.66;5000520;28;20046;-73
2023/09/17 01:32:53;;;;;;;;;;;;;;;-144.99;100.00;52297.25;4995080;28;20049;-73
2023/09/17 01:35:21;;;;;;;;;;;;;;;-144.99;100.00;52317.66;5008509;28;19951;-73
2023/09/17 01:37:50;;;;;;;;;;;;;;;-144.99;100.00;52285.03;5005386;28;20057;-73
2023/09/17 01:40:18;;;;;;;;;;;;;;;-144.99;100.00;52333.94;5000377;28;19950;-73
2023/09/17 01:42:46;;;;;;;;;;;;;;;-144.99;100.00;52333.94;4996647;28;19961;-73
2023/09/17 01:45:14;;;;;;;;;;;;;;;-144.99;100.00;52350.25;5001994;28;20352;-74
2023/09/17 01:47:42;;;;;;;;;;;;;;;-144.99;100.00;52354.34;5002145;28;19975;-73
2023/09/17 01:50:09;;;;;;;;;;;;;;;-144.99;100.00;52317.66;5001398;28;20412;-73
2023/09/17 01:52:37;;;;;;;;;;;;;;;-144.99;100.00;52338.03;5006784;28;19979;-73
2023/09/17 01:55:03;;;;;;;;;;;;;;;-144.99;100.00;52317.66;5011197;28;19950;-73
2023/09/17 01:57:31;;;;;;;;;;;;;;;-144.99;100.00;52321.72;5010303;28;19958;-73
2023/09/17 01:59:57;;;;;;;;;;;;;;;-144.99;100.00;52276.88;5005775;28;20028;-72
2023/09/17 02:02:26;;;;;;;;;;;;;;;-144.99;100.00;52305.41;5002279;28;20048;-72
2023/09/17 02:04:52;;;;;;;;;;;;;;;-144.99;100.00;52305.41;5003670;28;19978;-72
2023/09/17 02:07:19;;;;;;;;;;;;;;;-144.99;100.00;52329.88;5008257;28;20076;-72
2023/09/17 02:09:45;;;;;;;;;;;;;;;-144.99;100.00;52329.88;5003437;28;20042;-77
2023/09/17 02:12:12;;;;;;;;;;;;;;;-144.99;100.00;52323.75;5000513;28;19947;-77
2023/09/17 02:14:39;;;;;;;;;;;;;;;-144.99;100.00;52317.66;5006804;28;19982;-76
2023/09/17 02:17:06;;;;;;;;;;;;;;;-144.99;100.00;52325.81;5007482;28;19967;-76
2023/09/17 02:19:33;;;;;;;;;;;;;;;-144.99;100.00;52280.97;5007210;28;19953;-76
2023/09/17 02:22:00;;;;;;;;;;;;;;;-144.99;100.00;52301.34;4997321;28;20441;-76
2023/09/17 02:24:26;;;;;;;;;;;;;;;-144.99;100.00;52297.25;4994704;28;20469;-78
2023/09/17 02:26:53;;;;;;;;;;;;;;;-144.99;100.00;52285.03;5003972;28;19991;-78
2023/09/17 02:29:19;;;;;;;;;;;;;;;-144.99;100.00;52307.47;4998942;28;20509;-78
2023/09/17 02:31:46;;;;;;;;;;;;;;;-144.99;100.00;52321.72;5006141;28;19945;-78
2023/09/17 02:34:13;;;;;;;;;;;;;;;-144.99;100.00;52293.19;5011063;28;19951;-78
2023/09/17 02:36:41;;;;;;;;;;;;;;;-144.99;100.00;52329.88;5011440;28;19965;-78
2023/09/17 02:39:08;;;;;;;;;;;;;;;-144.99;100.00;52264.66;5011460;28;19989;-76
2023/09/17 02:41:34;;;;;;;;;;;;;;;-144.99;100.00;52301.34;5002272;28;20047;-78
2023/09/17 02:44:02;;;;;;;;;;;;;;;-144.99;100.00;52313.56;5001719;28;19997;-76
2023/09/17 02:46:29;;;;;;;;;;;;;;;-144.99;100.00;52272.81;5011586;28;20547;-78
2023/09/17 02:48:55;;;;;;;;;;;;;;;-144.99;100.00;52342.09;5010943;28;20461;-76
2023/09/17 02:51:22;;;;;;;;;;;;;;;-144.99;100.00;52338.03;5000375;28;20315;-76
2023/09/17 02:53:50;;;;;;;;;;;;;;;-144.99;100.00;52303.38;5006471;28;20040;-77
2023/09/17 02:56:16;;;;;;;;;;;;;;;-144.99;100.00;52342.09;5003097;28;20051;-78
2023/09/17 02:58:43;;;;;;;;;;;;;;;-144.99;100.00;52313.56;5008617;28;20037;-77
2023/09/17 03:01:17;;;;;;;;;;;;;;;-144.99;100.00;52301.34;4993819;28;20004;-76
2023/09/17 03:03:44;;;;;;;;;;;;;;;-144.99;100.00;52313.56;4994279;28;20058;-76
2023/09/17 03:06:11;;;;;;;;;;;;;;;-144.99;100.00;52329.88;4995817;28;19994;-78
2023/09/17 03:08:41;;;;;;;;;;;;;;;-144.99;100.00;52317.66;5002638;28;19942;-77
2023/09/17 03:11:10;;;;;;;;;;;;;;;-144.99;100.00;52346.19;5004615;28;19950;-77
2023/09/17 03:13:37;;;;;;;;;;;;;;;-144.99;100.00;52289.13;4999894;28;19944;-78
2023/09/17 03:16:03;;;;;;;;;;;;;;;-144.99;100.00;52289.13;5004871;28;19975;-76
2023/09/17 03:18:30;;;;;;;;;;;;;;;-144.99;100.00;52297.25;5004702;28;19940;-77
2023/09/17 03:20:56;;;;;;;;;;;;;;;-144.99;100.00;52276.88;4998935;28;20007;-77
2023/09/17 03:23:23;;;;;;;;;;;;;;;-144.99;100.00;52301.34;5011802;28;19975;-77
2023/09/17 03:25:49;;;;;;;;;;;;;;;-144.99;100.00;52280.97;5011206;28;19983;-77
2023/09/17 03:28:17;;;;;;;;;;;;;;;-144.99;100.00;52325.81;5008100;28;20419;-78
2023/09/17 03:30:44;;;;;;;;;;;;;;;-144.99;100.00;52309.50;5000523;28;20042;-76
2023/09/17 03:33:13;;;;;;;;;;;;;;;-144.99;100.00;52276.88;5003513;28;19945;-76
2023/09/17 03:35:39;;;;;;;;;;;;;;;-144.99;100.00;52346.19;5004902;28;19959;-75
2023/09/17 03:38:05;;;;;;;;;;;;;;;-144.99;100.00;52313.56;5004727;28;19979;-77
2023/09/17 03:40:32;;;;;;;;;;;;;;;-144.99;100.00;52315.59;5007412;28;20037;-77
2023/09/17 03:42:58;;;;;;;;;;;;;;;-144.99;100.00;52301.34;5007088;28;20031;-78
2023/09/17 03:45:27;;;;;;;;;;;;;;;-144.99;100.00;52329.88;4992817;28;19983;-77
2023/09/17 03:47:53;;;;;;;;;;;;;;;-144.99;100.00;52325.81;5003150;28;20481;-79
2023/09/17 03:50:19;;;;;;;;;;;;;;;-144.99;100.00;52325.81;5010228;28;20014;-77
2023/09/17 03:52:47;;;;;;;;;;;;;;;-144.99;100.00;52333.94;4997260;28;19979;-78
2023/09/17 03:55:14;;;;;;;;;;;;;;;-144.99;100.00;52317.66;5008559;28;20045;-77
2023/09/17 03:57:40;;;;;;;;;;;;;;;-144.99;100.00;52340.06;5002441;28;20036;-77
2023/09/17 04:00:07;;;;;;;;;;;;;;;-144.99;100.00;52374.72;4993420;28;19954;-76
2023/09/17 04:02:35;;;;;;;;;;;;;;;-144.99;100.00;52342.09;4997211;28;20424;-76
2023/09/17 04:05:05;;;;;;;;;;;;;;;-144.99;100.00;52321.72;5004335;28;19944;-76
2023/09/17 04:07:31;;;;;;;;;;;;;;;-144.99;100.00;52329.88;5002005;28;19966;-77
2023/09/17 04:09:58;;;;;;;;;;;;;;;-144.99;100.00;52285.03;5013567;28;20324;-75
2023/09/17 04:12:24;;;;;;;;;;;;;;;-144.99;100.00;52323.75;5018215;28;19947;-76
2023/09/17 04:14:51;;;;;;;;;;;;;;;-144.99;100.00;52331.91;5016192;28;20352;-73
2023/09/17 04:17:17;;;;;;;;;;;;;;;-144.99;100.00;52338.03;5002594;28;20532;-75
2023/09/17 04:19:45;;;;;;;;;;;;;;;-144.99;100.00;52317.66;5007931;28;19945;-73
2023/09/17 04:22:12;;;;;;;;;;;;;;;-144.99;100.00;52301.34;4992681;28;19951;-73
2023/09/17 04:24:39;;;;;;;;;;;;;;;-144.99;100.00;52325.81;5005019;28;19971;-73
2023/09/17 04:27:05;;;;;;;;;;;;;;;-144.99;100.00;52311.53;5000184;28;19964;-73
2023/09/17 04:29:32;;;;;;;;;;;;;;;-144.99;100.00;52346.19;5008743;28;20491;-74
2023/09/17 04:31:58;;;;;;;;;;;;;;;-144.99;100.00;52325.81;5002744;28;20342;-73
2023/09/17 04:34:25;;;;;;;;;;;;;;;-144.99;100.00;52305.41;5006724;28;20487;-76
2023/09/17 04:36:53;;;;;;;;;;;;;;;-144.99;100.00;52311.53;4993817;28;19957;-76
2023/09/17 04:39:19;;;;;;;;;;;;;;;-144.99;100.00;52384.91;5006955;28;20035;-75
2023/09/17 04:41:46;;;;;;;;;;;;;;;-144.99;100.00;52338.03;5009260;28;20857;-76
2023/09/17 04:44:12;;;;;;;;;;;;;;;-144.99;100.00;52346.19;5008045;28;19997;-75
2023/09/17 04:46:40;;;;;;;;;;;;;;;-144.99;100.00;52305.41;5004467;28;20015;-76
2023/09/17 04:49:06;;;;;;;;;;;;;;;-144.99;100.00;52350.25;5004736;28;20323;-74
2023/09/17 04:51:33;;;;;;;;;;;;;;;-144.99;100.00;52276.88;4997704;28;19985;-76
2023/09/17 04:54:01;;;;;;;;;;;;;;;-144.99;100.00;52305.41;5002491;28;19941;-76
2023/09/17 04:56:27;;;;;;;;;;;;;;;-144.99;100.00;52313.56;5004648;28;20008;-75
2023/09/17 04:58:54;;;;;;;;;;;;;;;-144.99;100.00;52325.81;5005329;28;19942;-74
2023/09/17 05:01:20;;;;;;;;;;;;;;;-144.99;100.00;52325.81;5000385;28;19944;-76
2023/09/17 05:03:47;;;;;;;;;;;;;;;-144.99;100.00;52321.72;5005395;28;19958;-75
2023/09/17 05:06:13;;;;;;;;;;;;;;;-144.99;100.00;52321.72;5000664;28;20599;-76
2023/09/17 05:08:39;;;;;;;;;;;;;;;-144.99;100.00;52313.56;4996028;28;20470;-74
2023/09/17 05:11:07;;;;;;;;;;;;;;;-144.99;100.00;52323.75;5001953;28;20032;-75
2023/09/17 05:13:34;;;;;;;;;;;;;;;-144.99;100.00;52321.72;5004635;28;20031;-75
2023/09/17 05:16:00;;;;;;;;;;;;;;;-144.99;100.00;52317.66;5000167;28;19999;-73
2023/09/17 05:18:26;;;;;;;;;;;;;;;-144.99;100.00;52297.25;5005622;28;20029;-75
2023/09/17 05:20:54;;;;;;;;;;;;;;;-144.99;100.00;52340.06;5003784;28;20054;-74
2023/09/17 05:23:20;;;;;;;;;;;;;;;-144.99;100.00;52342.09;4999814;28;20550;-74
2023/09/17 05:25:46;;;;;;;;;;;;;;;-144.99;100.00;52289.13;5000233;28;20073;-75
2023/09/17 05:28:14;;;;;;;;;;;;;;;-144.99;100.00;52305.41;4991197;28;20422;-76
2023/09/17 05:30:41;;;;;;;;;;;;;;;-144.99;100.00;52321.72;4998864;28;19988;-74
2023/09/17 05:33:08;;;;;;;;;;;;;;;-144.99;100.00;52319.69;4997364;28;19998;-76
2023/09/17 05:35:36;;;;;;;;;;;;;;;-144.99;100.00;52333.94;4995677;28;19963;-73
2023/09/17 05:38:03;;;;;;;;;;;;;;;-144.99;100.00;52305.41;5005524;28;20003;-74
2023/09/17 05:40:30;;;;;;;;;;;;;;;-144.99;100.00;52313.56;5005146;28;19952;-75
2023/09/17 05:42:57;;;;;;;;;;;;;;;-144.99;100.00;52297.25;4996063;28;19952;-74
2023/09/17 05:45:26;;;;;;;;;;;;;;;-144.99;100.00;52325.81;4993366;28;20022;-73
2023/09/17 05:47:52;;;;;;;;;;;;;;;-144.99;100.00;52295.22;5010199;28;19944;-73
2023/09/17 05:50:18;;;;;;;;;;;;;;;-144.99;100.00;52338.03;5003868;28;20666;-73
2023/09/17 05:52:45;;;;;;;;;;;;;;;-144.99;100.00;52260.56;4994559;28;20351;-78
2023/09/17 05:55:11;;;;;;;;;;;;;;;-144.99;100.00;52303.38;5008956;28;20053;-76
2023/09/17 05:57:38;;;;;;;;;;;;;;;-144.99;100.00;52313.56;5006348;28;20312;-77
2023/09/17 06:00:05;;;;;;;;;;;;;;;-144.99;100.00;52280.97;5003011;28;20041;-77
2023/09/17 06:02:33;;;;;;;;;;;;;;;-144.99;100.00;52297.25;5009463;28;20404;-76
2023/09/17 06:04:59;;;;;;;;;;;;;;;-144.99;100.00;52289.13;5005313;28;19964;-76
2023/09/17 06:07:25;;;;;;;;;;;;;;;-144.99;100.00;52266.69;5006173;28;20458;-76
2023/09/17 06:09:52;;;;;;;;;;;;;;;-144.99;100.00;52252.44;5011505;28;20042;-75
2023/09/17 06:12:19;;;;;;;;;;;;;;;-144.99;100.00;52293.19;4994377;28;20565;-75
2023/09/17 06:14:46;;;;;;;;;;;;;;;-144.99;100.00;52297.25;5016897;28;19942;-75
2023/09/17 06:17:12;;;;;;;;;;;;;;;-144.99;100.00;52297.25;5021036;28;19973;-76
2023/09/17 06:19:40;;;;;;;;;;;;;;;-144.99;100.00;52264.66;5026190;28;19951;-74
2023/09/17 06:22:07;;;;;;;;;;;;;;;-144.99;100.00;52295.22;5004998;28;19981;-76
2023/09/17 06:24:33;;;;;;;;;;;;;;;-144.99;100.00;52297.25;5003418;28;19957;-75
2023/09/17 06:26:59;;;;;;;;;;;;;;;-144.99;100.00;52289.13;4991450;28;20059;-76
2023/09/17 06:29:26;;;;;;;;;;;;;;;-144.99;100.00;52280.97;5001128;28;19950;-76
2023/09/17 06:31:52;;;;;;;;;;;;;;;-144.99;100.00;52256.50;5009844;28;20045;-74
2023/09/17 06:34:19;;;;;;;;;;;;;;;-144.99;100.00;52240.19;5001319;28;20039;-73
2023/09/17 06:36:47;;;;;;;;;;;;;;;-144.99;100.00;52252.44;5004466;28;19961;-74
2023/09/17 06:39:14;;;;;;;;;;;;;;;-144.99;100.00;52280.97;5003215;28;20317;-74
2023/09/17 06:41:40;;;;;;;;;;;;;;;-144.99;100.00;52272.81;5002532;28;20044;-75
2023/09/17 06:44:07;;;;;;;;;;;;;;;-144.99;100.00;52305.41;5000753;28;19968;-74
2023/09/17 06:46:33;;;;;;;;;;;;;;;-144.99;100.00;52289.13;5003259;28;20047;-75
2023/09/17 06:49:00;;;;;;;;;;;;;;;-144.99;100.00;52276.88;5004089;28;19944;-76
2023/09/17 06:51:26;;;;;;;;;;;;;;;-144.99;100.00;52280.97;5005102;28;19992;-73
2023/09/17 06:53:54;;;;;;;;;;;;;;;-144.99;100.00;52244.28;5002644;28;20048;-73
2023/09/17 06:56:23;;;;;;;;;;;;;;;-144.99;100.00;52293.19;5008834;28;20055;-73
2023/09/17 06:58:49;;;;;;;;;;;;;;;-144.99;100.00;52285.03;5011069;28;20039;-77
2023/09/17 07:01:17;;;;;;;;;;;;;;;-144.99;100.00;52280.97;5006817;28;19950;-71
2023/09/17 07:03:43;;;;;;;;;;;;;;;-144.99;100.00;52276.88;5004648;28;19939;-71
2023/09/17 07:06:09;;;;;;;;;;;;;;;-144.99;100.00;52256.50;4989885;28;20358;-71
2023/09/17 07:08:36;;;;;;;;;;;;;;;-144.99;100.00;52301.34;5009801;28;20045;-72
2023/09/17 07:11:04;;;;;;;;;;;;;;;-144.99;100.00;52244.28;5001991;28;20041;-74
2023/09/17 07:13:31;;;;;;;;;;;;;;;-144.99;100.00;52256.50;5001661;28;20034;-76
2023/09/17 07:15:58;;;;;;;;;;;;;;;-144.99;100.00;52305.41;4996781;28;19960;-74
2023/09/17 07:18:26;;;;;;;;;;;;;;;-144.99;100.00;52289.13;5002297;28;20032;-75
2023/09/17 07:20:52;;;;;;;;;;;;;;;-144.99;100.00;52260.56;5003734;28;19949;-74
2023/09/17 07:23:19;;;;;;;;;;;;;;;-144.99;100.00;52258.53;5003982;28;19945;-74
2023/09/17 07:25:45;;;;;;;;;;;;;;;-144.99;100.00;52280.97;5004546;28;20406;-76
2023/09/17 07:28:13;;;;;;;;;;;;;;;-144.99;100.00;52285.03;5011033;28;20291;-75
2023/09/17 07:30:39;;;;;;;;;;;;;;;-144.99;100.00;52285.03;5007044;28;20030;-76
2023/09/17 07:33:06;;;;;;;;;;;;;;;-144.99;100.00;52252.44;5011210;28;19948;-74
2023/09/17 07:35:32;;;;;;;;;;;;;;;-144.99;100.00;52260.56;4995673;28;20381;-74
2023/09/17 07:37:59;;;;;;;;;;;;;;;-144.99;100.00;52268.72;5009858;28;20371;-74
2023/09/17 07:40:25;;;;;;;;;;;;;;;-144.99;100.00;52215.75;5003119;28;19971;-74
2023/09/17 07:42:52;;;;;;;;;;;;;;;-144.99;100.00;52244.28;5004197;28;20004;-75
2023/09/17 07:45:20;;;;;;;;;;;;;;;-144.99;100.00;52213.69;5008505;28;19964;-74
2023/09/17 07:47:46;;;;;;;;;;;;;;;-144.99;100.00;52244.28;4998675;28;19988;-75
2023/09/17 07:50:13;;;;;;;;;;;;;;;-144.99;100.00;52260.56;5002489;28;20023;-75
2023/09/17 07:52:40;;;;;;;;;;;;;;;-144.99;100.00;52272.81;5000098;28;20039;-79
2023/09/17 07:55:07;;;;;;;;;;;;;;;-144.99;100.00;52240.19;5001802;28;20439;-78
2023/09/17 07:57:34;;;;;;;;;;;;;;;-144.99;99.74;52244.28;4996561;28;20009;-77
2023/09/17 08:00:01;;;;;;;;;;;;;;;-144.99;100.00;52256.50;5008644;28;20032;-77
2023/09/17 08:02:29;;;;;;;;;;;;;;;-144.99;99.22;52264.66;5007751;28;20408;-75
2023/09/17 08:04:55;;;;;;;;;;;;;;;-144.99;99.88;52264.66;5004586;28;20595;-78
2023/09/17 08:07:22;;;;;;;;;;;;;;;-144.99;99.81;52264.66;5009581;28;20024;-77
2023/09/17 08:09:49;;;;;;;;;;;;;;;-144.99;99.52;52248.34;5000596;28;20028;-78
2023/09/17 08:12:15;;;;;;;;;;;;;;;-144.99;99.12;52236.13;5005269;28;20317;-78
2023/09/17 08:14:45;;;;;;;;;;;;;;;-144.99;99.38;52232.03;5017911;28;19941;-78
2023/09/17 08:17:11;;;;;;;;;;;;;;;-144.99;98.86;52254.47;5026539;28;19965;-78
2023/09/17 08:19:39;;;;;;;;;;;;;;;-144.99;98.49;52276.88;5027453;28;19954;-79
2023/09/17 08:22:06;;;;;;;;;;;;;;;-144.99;98.56;52223.88;5025210;28;20015;-79
2023/09/17 08:24:32;;;;;;;;;;;;;;;-144.99;98.56;52223.88;5020122;28;19956;-78
2023/09/17 08:26:59;;;;;;;;;;;;;;;-144.99;98.40;52240.19;4995376;28;20020;-78
2023/09/17 08:29:25;;;;;;;;;;;;;;;-144.99;98.42;52244.28;5004095;28;19977;-78
2023/09/17 08:31:52;;;;;;;;;;;;;;;-144.99;98.26;52264.66;5007097;28;19947;-78
2023/09/17 08:34:18;;;;;;;;;;;;;;;-144.99;98.04;52252.44;5010859;28;19950;-78
2023/09/17 08:36:46;;;;;;;;;;;;;;;-144.99;97.74;52230.00;5011812;28;20029;-79
2023/09/17 08:39:12;;;;;;;;;;;;;;;-144.99;97.05;52248.34;5010098;28;19982;-78
2023/09/17 08:41:40;;;;;;;;;;;;;;;-144.99;96.59;52223.88;5013628;28;19939;-78
2023/09/17 08:44:06;;;;;;;;;;;;;;;-144.99;95.88;52225.94;5002115;28;20538;-78
2023/09/17 08:49:12;;;;;;;;;;;;;;;-144.99;95.37;52236.13;5015016;28;19968;-67
2023/09/17 08:51:41;;;;;;;;;;;;;;;-144.99;94.99;52252.44;5002247;28;20037;-69
2023/09/17 08:54:14;;;;;;;;;;;;;;;-144.99;95.16;52270.78;5004691;28;20086;-69
2023/09/17 08:56:43;;;;;;;;;;;;;;;-144.99;95.49;52248.34;5001565;28;19959;-69
2023/09/17 08:59:11;;;;;;;;;;;;;;;-144.99;95.41;52256.50;5008269;28;20142;-71
2023/09/17 09:01:40;;;;;;;;;;;;;;;-144.99;95.69;52240.19;4997739;28;19955;-70
2023/09/17 09:04:07;;;;;;;;;;;;;;;-144.99;95.94;52223.88;5004349;28;20039;-69
2023/09/17 09:06:34;;;;;;;;;;;;;;;-144.99;95.95;52244.28;5000179;28;20050;-70
2023/09/17 09:09:03;;;;;;;;;;;;;;;-144.99;96.22;52238.16;5005230;28;19956;-71
2023/09/17 09:11:31;;;;;;;;;;;;;;;-144.99;96.21;52223.88;5011134;28;20044;-72
2023/09/17 09:13:57;;;;;;;;;;;;;;;-144.99;96.65;52207.59;5012651;28;19952;-72
2023/09/17 09:16:24;;;;;;;;;;;;;;;-144.99;96.55;52227.97;5008280;28;20039;-71
2023/09/17 09:18:50;;;;;;;;;;;;;;;-144.99;96.87;52252.44;5012853;28;19958;-68
2023/09/17 09:21:17;;;;;;;;;;;;;;;-144.99;97.13;52252.44;5010888;28;20001;-68
2023/09/17 09:23:44;;;;;;;;;;;;;;;-144.99;97.20;52232.03;5012240;28;19990;-70
2023/09/17 09:26:10;;;;;;;;;;;;;;;-144.99;97.34;52201.47;5003414;28;20009;-68
2023/09/17 09:28:38;;;;;;;;;;;;;;;-144.99;97.69;52240.19;5011517;28;20461;-68
2023/09/17 09:31:04;;;;;;;;;;;;;;;-144.99;97.69;52227.97;5010385;28;19993;-71
2023/09/17 09:33:31;;;;;;;;;;;;;;;-144.99;98.18;52203.50;5011403;28;19945;-68
2023/09/17 09:35:59;;;;;;;;;;;;;;;-144.99;98.41;52223.88;5003562;28;19996;-68
2023/09/17 09:38:26;;;;;;;;;;;;;;;-144.99;98.87;52264.66;5011765;28;19948;-70
2023/09/17 09:40:52;;;;;;;;;;;;;;;-144.99;98.67;52252.44;5015887;28;19944;-71
2023/09/17 09:43:29;;;;;;;;;;;;;;;-144.99;98.70;52234.09;5014886;28;20079;-68
2023/09/17 09:46:00;;;;;;;;;;;;;;;-144.99;98.73;52244.28;5014675;28;20052;-69
2023/09/17 09:48:28;;;;;;;;;;;;;;;-144.99;98.51;52209.63;5011350;28;20438;-69
2023/09/17 09:50:55;;;;;;;;;;;;;;;-144.99;98.39;52236.13;5011470;28;19994;-67
2023/09/17 09:53:21;;;;;;;;;;;;;;;-144.99;98.38;52264.66;5011813;28;19992;-67
2023/09/17 09:55:48;;;;;;;;;;;;;;;-144.99;98.21;52223.88;5011889;28;19996;-67
2023/09/17 09:58:15;;;;;;;;;;;;;;;-144.99;98.15;52244.28;5012185;28;19996;-67
2023/09/17 10:00:45;;;;;;;;;;;;;;;-144.99;96.79;52240.19;5006318;28;20042;-67
2023/09/17 10:03:13;;;;;;;;;;;;;;;-144.99;95.89;52199.44;5002930;28;19952;-67
2023/09/17 10:05:40;;;;;;;;;;;;;;;-144.99;95.56;52232.03;5010600;28;19977;-67
2023/09/17 10:08:08;;;;;;;;;;;;;;;-144.99;95.35;52211.66;4997545;28;19949;-68
2023/09/17 10:10:35;;;;;;;;;;;;;;;-144.99;95.46;52248.34;5012295;28;19965;-68
2023/09/17 10:13:04;;;;;;;;;;;;;;;-144.99;94.34;52211.66;5011243;28;19941;-68
2023/09/17 10:15:30;;;;;;;;;;;;;;;-144.99;93.64;52234.09;5010808;28;19940;-69
2023/09/17 10:17:58;;;;;;;;;;;;;;;-144.99;92.81;52203.50;5005384;28;19945;-69
2023/09/17 10:20:26;;;;;;;;;;;;;;;-144.99;92.93;52211.66;5009675;28;20427;-67
2023/09/17 10:22:54;;;;;;;;;;;;;;;-144.99;91.47;52203.50;5011189;28;20040;-68
2023/09/17 10:25:21;;;;;;;;;;;;;;;-144.99;90.58;52211.66;5011371;28;20515;-68
2023/09/17 10:27:50;;;;;;;;;;;;;;;-144.99;89.69;52195.34;5012316;28;19957;-68
2023/09/17 10:30:18;;;;;;;;;;;;;;;-144.99;88.67;52179.06;5011222;28;19967;-68
2023/09/17 10:32:45;;;;;;;;;;;;;;;-144.99;87.88;52183.13;5011215;28;19943;-68
2023/09/17 10:35:12;;;;;;;;;;;;;;;-144.99;87.21;52168.84;5015049;28;20013;-68
2023/09/17 10:37:40;;;;;;;;;;;;;;;-144.99;86.68;52207.59;5012259;28;19988;-68
2023/09/17 10:40:09;;;;;;;;;;;;;;;-144.99;85.22;52195.34;5011074;28;20069;-68
2023/09/17 10:42:37;;;;;;;;;;;;;;;-144.99;84.30;52126.06;5011129;28;20400;-68
2023/09/17 10:45:07;;;;;;;;;;;;;;;-144.99;81.29;52089.38;5010848;28;20049;-68
2023/09/17 10:47:36;;;;;;;;;;;;;;;-144.99;77.48;52130.13;5010026;28;19943;-68
2023/09/17 10:50:03;;;;;;;;;;;;;;;-144.99;75.19;52016.00;5010260;28;19965;-68
2023/09/17 10:52:30;;;;;;;;;;;;;;;-144.99;74.34;52109.75;5010361;28;20012;-68
2023/09/17 10:54:58;;;;;;;;;;;;;;;-144.99;73.79;52121.97;5011285;28;19977;-68
2023/09/17 10:57:29;;;;;;;;;;;;;;;-144.99;73.96;52101.59;5011383;28;20046;-69
2023/09/17 10:59:57;;;;;;;;;;;;;;;-144.99;72.60;52121.97;5010564;28;19958;-69
2023/09/17 11:02:25;;;;;;;;;;;;;;;-144.99;72.76;52058.81;5009915;28;19947;-69
2023/09/17 11:04:52;;;;;;;;;;;;;;;-144.99;71.78;52038.44;5010307;28;19940;-69
2023/09/17 11:07:19;;;;;;;;;;;;;;;-144.99;69.57;51975.25;5010380;28;20044;-69
2023/09/17 11:09:46;;;;;;;;;;;;;;;-144.99;67.10;52048.63;5011292;28;20062;-69
2023/09/17 11:12:14;;;;;;;;;;;;;;;-144.99;66.61;51991.56;5011819;28;19999;-69
2023/09/17 11:14:41;;;;;;;;;;;;;;;-144.99;65.53;51993.59;5008135;28;20024;-69
2023/09/17 11:17:08;;;;;;;;;;;;;;;-144.99;65.51;52048.63;5000221;28;20473;-69
2023/09/17 11:19:35;;;;;;;;;;;;;;;-144.99;65.10;52069.00;5008662;28;20015;-71
2023/09/17 11:22:08;;;;;;;;;;;;;;;-144.99;65.08;52028.22;5011183;28;20369;-70
2023/09/17 11:24:36;;;;;;;;;;;;;;;-144.99;64.44;52007.84;5003048;28;19956;-71
2023/09/17 11:27:04;;;;;;;;;;;;;;;-144.99;63.60;52007.84;5010305;28;19996;-70
2023/09/17 11:29:39;;;;;;;;;;;;;;;-144.99;63.05;52032.31;5009244;28;20417;-74
2023/09/17 11:32:06;;;;;;;;;;;;;;;-144.99;63.17;52036.38;5007477;28;19963;-71
2023/09/17 11:34:34;;;;;;;;;;;;;;;-144.99;61.97;52020.09;5009307;28;20131;-72
2023/09/17 11:37:00;;;;;;;;;;;;;;;-144.99;62.06;52097.53;5003923;28;19983;-72
2023/09/17 11:39:27;;;;;;;;;;;;;;;-144.99;62.31;52154.59;5010776;28;20061;-70
2023/09/17 11:42:03;;;;;;;;;;;;;;;-144.99;63.52;52060.84;5009348;28;19946;-72
2023/09/17 11:44:30;;;;;;;;;;;;;;;-144.99;64.21;52064.91;5009536;28;20003;-69
2023/09/17 11:46:58;;;;;;;;;;;;;;;-144.99;63.99;52081.22;5008976;28;20377;-73
2023/09/17 11:49:25;;;;;;;;;;;;;;;-144.99;63.39;52050.66;5004898;28;19963;-73
2023/09/17 11:51:52;;;;;;;;;;;;;;;-144.99;63.62;52069.00;5004402;28;19945;-71
2023/09/17 11:54:20;;;;;;;;;;;;;;;-144.99;62.80;52079.19;5002058;28;19969;-71
2023/09/17 11:56:49;;;;;;;;;;;;;;;-144.99;62.48;52069.00;5010174;28;19947;-72
2023/09/17 11:59:17;;;;;;;;;;;;;;;-144.99;62.17;52056.78;5008733;28;20069;-72
2023/09/17 12:01:45;;;;;;;;;;;;;;;-144.99;62.64;52077.16;5005348;28;19942;-70
2023/09/17 12:04:13;;;;;;;;;;;;;;;-144.99;62.25;52044.53;5008975;28;20545;-69
2023/09/17 12:06:40;;;;;;;;;;;;;;;-144.99;61.89;52024.16;5009143;28;20015;-70
2023/09/17 12:09:15;;;;;;;;;;;;;;;-144.99;61.75;52036.38;5002022;28;19965;-70
2023/09/17 12:11:42;;;;;;;;;;;;;;;-144.99;61.79;52130.13;5002434;28;19945;-70
2023/09/17 12:14:09;;;;;;;;;;;;;;;-144.99;62.15;52097.53;5005762;28;20381;-70
2023/09/17 12:16:35;;;;;;;;;;;;;;;-144.99;62.93;52162.75;5009478;28;19945;-70
2023/09/17 12:19:02;;;;;;;;;;;;;;;-144.99;63.44;52152.56;5009683;28;20432;-70
2023/09/17 12:21:32;;;;;;;;;;;;;;;-144.99;64.07;52219.81;5015046;28;20039;-70
2023/09/17 12:24:04;;;;;;;;;;;;;;;-144.99;64.73;52187.19;5017198;28;20200;-70